EJU68U ELLX-LIMC
Flight info
| Callsign | EJU68U |
|---|---|
| Flight time | 1h 13m |
| Altitude | 37000 |
| Route | GTQ A242 POGOL DCT LASAT DCT SHARA DCT DEVDI DCT BASGO/N0449F290 Z424 AKASU/N0381F190 Z424 RIXUV |
| Aircraft | A320/M-SDE3FGHIRWY/LB1 |
Departure
| Time | 2026-05-05 19:28 |
|---|---|
| Airport | Luxembourg-Findel International Airport (ELLX) |
Arrival
| Time | 2026-05-05 20:41 |
|---|---|
| Airport | Milan Malpensa International Airport (LIMC) |
| Time | Latitude | Longitude | Altitude | Speed | Heading |
|---|---|---|---|---|---|
| 2026-05-05 19:10 | 49.63229 | 6.21768 | 1219 ft | 0 kts | 238° |
| 2026-05-05 19:20 | 49.63228 | 6.21764 | 1218 ft | 1 kts | 240° |
| 2026-05-05 19:21 | 49.63210 | 6.21719 | 1218 ft | 11 kts | 238° |
| 2026-05-05 19:21 | 49.63201 | 6.21715 | 1218 ft | 1 kts | 174° |
| 2026-05-05 19:21 | 49.63174 | 6.21748 | 1218 ft | 5 kts | 150° |
| 2026-05-05 19:21 | 49.63152 | 6.21766 | 1218 ft | 4 kts | 151° |
| 2026-05-05 19:22 | 49.63115 | 6.21761 | 1218 ft | 7 kts | 236° |
| 2026-05-05 19:22 | 49.63080 | 6.21657 | 1218 ft | 14 kts | 244° |
| 2026-05-05 19:22 | 49.63030 | 6.21496 | 1218 ft | 18 kts | 245° |
| 2026-05-05 19:22 | 49.62968 | 6.21296 | 1218 ft | 23 kts | 244° |
| 2026-05-05 19:23 | 49.62900 | 6.21080 | 1218 ft | 21 kts | 245° |
| 2026-05-05 19:23 | 49.62837 | 6.20877 | 1218 ft | 20 kts | 244° |
| 2026-05-05 19:23 | 49.62767 | 6.20708 | 1218 ft | 18 kts | 224° |
| 2026-05-05 19:23 | 49.62668 | 6.20588 | 1218 ft | 17 kts | 220° |
| 2026-05-05 19:24 | 49.62589 | 6.20453 | 1219 ft | 17 kts | 228° |
| 2026-05-05 19:24 | 49.62508 | 6.20306 | 1219 ft | 19 kts | 233° |
| 2026-05-05 19:24 | 49.62442 | 6.20134 | 1221 ft | 19 kts | 241° |
| 2026-05-05 19:24 | 49.62378 | 6.19964 | 1224 ft | 18 kts | 240° |
| 2026-05-05 19:25 | 49.62314 | 6.19794 | 1226 ft | 20 kts | 240° |
| 2026-05-05 19:25 | 49.62232 | 6.19575 | 1226 ft | 27 kts | 240° |
| 2026-05-05 19:25 | 49.62141 | 6.19330 | 1218 ft | 28 kts | 240° |
| 2026-05-05 19:25 | 49.62040 | 6.19057 | 1201 ft | 31 kts | 240° |
| 2026-05-05 19:26 | 49.61938 | 6.18804 | 1181 ft | 21 kts | 225° |
| 2026-05-05 19:26 | 49.61845 | 6.18696 | 1171 ft | 15 kts | 204° |
| 2026-05-05 19:26 | 49.61803 | 6.18718 | 1169 ft | 5 kts | 134° |
| 2026-05-05 19:26 | 49.61769 | 6.18794 | 1171 ft | 9 kts | 101° |
| 2026-05-05 19:27 | 49.61787 | 6.18858 | 1174 ft | 5 kts | 60° |
| 2026-05-05 19:27 | 49.61873 | 6.19090 | 1194 ft | 59 kts | 60° |
| 2026-05-05 19:27 | 49.62180 | 6.19907 | 1227 ft | 117 kts | 60° |
| 2026-05-05 19:27 | 49.62675 | 6.21242 | 1232 ft | 166 kts | 61° |
| 2026-05-05 19:28 | 49.63253 | 6.22817 | 1819 ft | 171 kts | 62° |
| 2026-05-05 19:28 | 49.63849 | 6.24439 | 2516 ft | 178 kts | 62° |
| 2026-05-05 19:28 | 49.64442 | 6.26241 | 2897 ft | 199 kts | 77° |
| 2026-05-05 19:28 | 49.64280 | 6.28399 | 3202 ft | 217 kts | 122° |
| 2026-05-05 19:29 | 49.63261 | 6.30260 | 3571 ft | 239 kts | 139° |
| 2026-05-05 19:29 | 49.61936 | 6.31992 | 4150 ft | 258 kts | 143° |
| 2026-05-05 19:29 | 49.60470 | 6.33664 | 5043 ft | 264 kts | 153° |
| 2026-05-05 19:29 | 49.58780 | 6.34804 | 5996 ft | 267 kts | 160° |
| 2026-05-05 19:30 | 49.57047 | 6.35886 | 6919 ft | 271 kts | 161° |
| 2026-05-05 19:30 | 49.55283 | 6.36979 | 7808 ft | 275 kts | 161° |
| 2026-05-05 19:30 | 49.53490 | 6.38089 | 8722 ft | 279 kts | 161° |
| 2026-05-05 19:30 | 49.51671 | 6.39212 | 9641 ft | 283 kts | 161° |
| 2026-05-05 19:31 | 49.49806 | 6.40362 | 10240 ft | 299 kts | 161° |
| 2026-05-05 19:31 | 49.47797 | 6.41591 | 10545 ft | 323 kts | 161° |
| 2026-05-05 19:31 | 49.45648 | 6.42911 | 10978 ft | 339 kts | 160° |
| 2026-05-05 19:31 | 49.43437 | 6.44276 | 11703 ft | 345 kts | 160° |
| 2026-05-05 19:32 | 49.41228 | 6.45641 | 12483 ft | 349 kts | 160° |
| 2026-05-05 19:32 | 49.38959 | 6.47041 | 13262 ft | 354 kts | 160° |
| 2026-05-05 19:32 | 49.36654 | 6.48460 | 13688 ft | 358 kts | 160° |
| 2026-05-05 19:32 | 49.34338 | 6.49883 | 13973 ft | 361 kts | 160° |
| 2026-05-05 19:33 | 49.32003 | 6.51317 | 14732 ft | 363 kts | 160° |
| 2026-05-05 19:33 | 49.29652 | 6.52754 | 15454 ft | 365 kts | 160° |
| 2026-05-05 19:33 | 49.27278 | 6.54201 | 16141 ft | 369 kts | 160° |
| 2026-05-05 19:33 | 49.24882 | 6.55662 | 16836 ft | 372 kts | 160° |
| 2026-05-05 19:34 | 49.22467 | 6.57136 | 17526 ft | 375 kts | 160° |
| 2026-05-05 19:34 | 49.20042 | 6.58650 | 18193 ft | 379 kts | 159° |
| 2026-05-05 19:34 | 49.17609 | 6.60257 | 18785 ft | 382 kts | 158° |
| 2026-05-05 19:35 | 49.12730 | 6.63610 | 19995 ft | 387 kts | 157° |
| 2026-05-05 19:35 | 49.10272 | 6.65306 | 20654 ft | 388 kts | 157° |
| 2026-05-05 19:35 | 49.07804 | 6.66999 | 21309 ft | 389 kts | 157° |
| 2026-05-05 19:35 | 49.05357 | 6.68666 | 21916 ft | 391 kts | 157° |
| 2026-05-05 19:36 | 49.02829 | 6.70375 | 22511 ft | 393 kts | 157° |
| 2026-05-05 19:36 | 49.00356 | 6.72038 | 23064 ft | 395 kts | 157° |
| 2026-05-05 19:36 | 48.97831 | 6.73728 | 23584 ft | 397 kts | 157° |
| 2026-05-05 19:36 | 48.95298 | 6.75417 | 24033 ft | 399 kts | 157° |
| 2026-05-05 19:37 | 48.92744 | 6.77121 | 24455 ft | 402 kts | 157° |
| 2026-05-05 19:37 | 48.90180 | 6.78836 | 24857 ft | 404 kts | 156° |
| 2026-05-05 19:37 | 48.87600 | 6.80562 | 25274 ft | 406 kts | 157° |
| 2026-05-05 19:37 | 48.85000 | 6.82303 | 25640 ft | 410 kts | 157° |
| 2026-05-05 19:38 | 48.82384 | 6.84058 | 26027 ft | 412 kts | 157° |
| 2026-05-05 19:38 | 48.79753 | 6.85819 | 26408 ft | 414 kts | 157° |
| 2026-05-05 19:38 | 48.77088 | 6.87595 | 26787 ft | 417 kts | 157° |
| 2026-05-05 19:38 | 48.74442 | 6.89351 | 27157 ft | 419 kts | 157° |
| 2026-05-05 19:39 | 48.71766 | 6.91125 | 27517 ft | 421 kts | 157° |
| 2026-05-05 19:39 | 48.69075 | 6.92903 | 27873 ft | 423 kts | 157° |
| 2026-05-05 19:39 | 48.66367 | 6.94692 | 28219 ft | 425 kts | 157° |
| 2026-05-05 19:39 | 48.63649 | 6.96487 | 28526 ft | 427 kts | 157° |
| 2026-05-05 19:40 | 48.60920 | 6.98290 | 28892 ft | 429 kts | 156° |
| 2026-05-05 19:40 | 48.58180 | 7.00105 | 29204 ft | 430 kts | 156° |
| 2026-05-05 19:40 | 48.55435 | 7.01925 | 29505 ft | 432 kts | 156° |
| 2026-05-05 19:40 | 48.52711 | 7.03723 | 29783 ft | 434 kts | 156° |
| 2026-05-05 19:41 | 48.49931 | 7.05553 | 30028 ft | 436 kts | 156° |
| 2026-05-05 19:41 | 48.47140 | 7.07390 | 30240 ft | 438 kts | 157° |
| 2026-05-05 19:41 | 48.44348 | 7.09225 | 30514 ft | 438 kts | 157° |
| 2026-05-05 19:41 | 48.41559 | 7.11056 | 30810 ft | 438 kts | 158° |
| 2026-05-05 19:42 | 48.38762 | 7.12888 | 31073 ft | 438 kts | 158° |
| 2026-05-05 19:42 | 48.35971 | 7.14713 | 31363 ft | 438 kts | 158° |
| 2026-05-05 19:42 | 48.33176 | 7.16538 | 31664 ft | 438 kts | 158° |
| 2026-05-05 19:42 | 48.30380 | 7.18364 | 31963 ft | 438 kts | 158° |
| 2026-05-05 19:43 | 48.27591 | 7.20183 | 32260 ft | 437 kts | 158° |
| 2026-05-05 19:43 | 48.24799 | 7.22001 | 32576 ft | 437 kts | 158° |
| 2026-05-05 19:43 | 48.22014 | 7.23813 | 32870 ft | 437 kts | 158° |
| 2026-05-05 19:43 | 48.19225 | 7.25626 | 33145 ft | 437 kts | 158° |
| 2026-05-05 19:44 | 48.16537 | 7.27373 | 33357 ft | 439 kts | 158° |
| 2026-05-05 19:44 | 48.13744 | 7.29185 | 33664 ft | 438 kts | 159° |
| 2026-05-05 19:44 | 48.10946 | 7.30994 | 33970 ft | 437 kts | 159° |
| 2026-05-05 19:44 | 48.08155 | 7.32794 | 34231 ft | 437 kts | 159° |
| 2026-05-05 19:45 | 48.05361 | 7.34596 | 34478 ft | 437 kts | 159° |
| 2026-05-05 19:45 | 48.02567 | 7.36401 | 34727 ft | 437 kts | 159° |
| 2026-05-05 19:45 | 47.99784 | 7.38198 | 34971 ft | 437 kts | 159° |
| 2026-05-05 19:45 | 47.96988 | 7.40002 | 35184 ft | 437 kts | 159° |
| 2026-05-05 19:46 | 47.94192 | 7.41798 | 35397 ft | 437 kts | 159° |
| 2026-05-05 19:46 | 47.91391 | 7.43590 | 35622 ft | 437 kts | 159° |
| 2026-05-05 19:46 | 47.88634 | 7.45350 | 35841 ft | 437 kts | 159° |
| 2026-05-05 19:46 | 47.85841 | 7.47132 | 36065 ft | 437 kts | 159° |
| 2026-05-05 19:47 | 47.83045 | 7.48921 | 36286 ft | 437 kts | 159° |
| 2026-05-05 19:47 | 47.80286 | 7.50687 | 36498 ft | 437 kts | 160° |
| 2026-05-05 19:47 | 47.77498 | 7.52466 | 36727 ft | 436 kts | 160° |
| 2026-05-05 19:47 | 47.74708 | 7.54245 | 36856 ft | 437 kts | 160° |
| 2026-05-05 19:48 | 47.71914 | 7.56030 | 36893 ft | 436 kts | 160° |
| 2026-05-05 19:48 | 47.66360 | 7.59625 | 36893 ft | 435 kts | 160° |
| 2026-05-05 19:49 | 47.60824 | 7.63236 | 36893 ft | 435 kts | 160° |
| 2026-05-05 19:49 | 47.55281 | 7.66830 | 36894 ft | 434 kts | 160° |
| 2026-05-05 19:50 | 47.49735 | 7.70397 | 36896 ft | 434 kts | 160° |
| 2026-05-05 19:50 | 47.44203 | 7.73950 | 36898 ft | 434 kts | 160° |
| 2026-05-05 19:51 | 47.38661 | 7.77503 | 36899 ft | 434 kts | 160° |
| 2026-05-05 19:51 | 47.33121 | 7.81048 | 36902 ft | 434 kts | 160° |
| 2026-05-05 19:52 | 47.28521 | 7.83988 | 36911 ft | 434 kts | 161° |
| 2026-05-05 19:52 | 47.22978 | 7.87516 | 36913 ft | 434 kts | 160° |
| 2026-05-05 19:53 | 47.16536 | 7.91618 | 36916 ft | 434 kts | 160° |
| 2026-05-05 19:53 | 47.11902 | 7.94554 | 36924 ft | 434 kts | 161° |
| 2026-05-05 19:54 | 47.06368 | 7.98042 | 36913 ft | 434 kts | 161° |
| 2026-05-05 19:54 | 47.00816 | 8.01548 | 36912 ft | 434 kts | 161° |
| 2026-05-05 19:55 | 46.95272 | 8.05045 | 36915 ft | 435 kts | 161° |
| 2026-05-05 19:55 | 46.89701 | 8.08545 | 36919 ft | 435 kts | 161° |
| 2026-05-05 19:56 | 46.84138 | 8.12034 | 36903 ft | 436 kts | 161° |
| 2026-05-05 19:56 | 46.78557 | 8.15528 | 36893 ft | 436 kts | 161° |
| 2026-05-05 19:57 | 46.72973 | 8.19018 | 36932 ft | 437 kts | 162° |
| 2026-05-05 19:57 | 46.67386 | 8.22492 | 36402 ft | 439 kts | 162° |
| 2026-05-05 19:57 | 46.64564 | 8.24242 | 35318 ft | 443 kts | 163° |
| 2026-05-05 19:58 | 46.61712 | 8.26005 | 34410 ft | 444 kts | 163° |
| 2026-05-05 19:58 | 46.58870 | 8.27768 | 33432 ft | 444 kts | 163° |
| 2026-05-05 19:58 | 46.56025 | 8.29538 | 32344 ft | 444 kts | 163° |
| 2026-05-05 19:58 | 46.53222 | 8.31277 | 31246 ft | 445 kts | 163° |
| 2026-05-05 19:59 | 46.50371 | 8.33039 | 30117 ft | 446 kts | 163° |
| 2026-05-05 19:59 | 46.47512 | 8.34802 | 28943 ft | 445 kts | 162° |
| 2026-05-05 19:59 | 46.44684 | 8.36548 | 28188 ft | 437 kts | 162° |
| 2026-05-05 19:59 | 46.41925 | 8.38255 | 27533 ft | 427 kts | 162° |
| 2026-05-05 20:00 | 46.39209 | 8.39933 | 26868 ft | 420 kts | 162° |
| 2026-05-05 20:00 | 46.36544 | 8.41575 | 26213 ft | 414 kts | 162° |
| 2026-05-05 20:00 | 46.33904 | 8.43194 | 25579 ft | 409 kts | 162° |
| 2026-05-05 20:00 | 46.31298 | 8.44786 | 24946 ft | 404 kts | 162° |
| 2026-05-05 20:01 | 46.28720 | 8.46314 | 24332 ft | 397 kts | 166° |
| 2026-05-05 20:01 | 46.26075 | 8.47337 | 23701 ft | 389 kts | 174° |
| 2026-05-05 20:01 | 46.23413 | 8.47791 | 23042 ft | 382 kts | 178° |
| 2026-05-05 20:01 | 46.20782 | 8.48155 | 22467 ft | 378 kts | 178° |
| 2026-05-05 20:02 | 46.18187 | 8.48521 | 21943 ft | 372 kts | 178° |
| 2026-05-05 20:02 | 46.15623 | 8.48891 | 21406 ft | 369 kts | 178° |
| 2026-05-05 20:02 | 46.13076 | 8.49260 | 20928 ft | 365 kts | 178° |
| 2026-05-05 20:02 | 46.10574 | 8.49873 | 20438 ft | 364 kts | 169° |
| 2026-05-05 20:03 | 46.08182 | 8.51050 | 19958 ft | 362 kts | 163° |
| 2026-05-05 20:03 | 46.05834 | 8.52324 | 19484 ft | 359 kts | 163° |
| 2026-05-05 20:03 | 46.03531 | 8.53568 | 19089 ft | 365 kts | 163° |
| 2026-05-05 20:03 | 46.01154 | 8.54844 | 18976 ft | 368 kts | 163° |
| 2026-05-05 20:04 | 45.98813 | 8.56104 | 19057 ft | 351 kts | 162° |
| 2026-05-05 20:04 | 45.96574 | 8.57315 | 19001 ft | 337 kts | 163° |
| 2026-05-05 20:04 | 45.94427 | 8.58479 | 18995 ft | 323 kts | 164° |
| 2026-05-05 20:04 | 45.92340 | 8.59603 | 18740 ft | 319 kts | 164° |
| 2026-05-05 20:05 | 45.90275 | 8.60789 | 18311 ft | 321 kts | 158° |
| 2026-05-05 20:05 | 45.88387 | 8.62539 | 17864 ft | 326 kts | 146° |
| 2026-05-05 20:05 | 45.86632 | 8.64589 | 17435 ft | 325 kts | 146° |
| 2026-05-05 20:05 | 45.84884 | 8.66626 | 17128 ft | 319 kts | 146° |
| 2026-05-05 20:06 | 45.83220 | 8.68570 | 16944 ft | 300 kts | 146° |
| 2026-05-05 20:06 | 45.81622 | 8.70427 | 16535 ft | 292 kts | 146° |
| 2026-05-05 20:06 | 45.80050 | 8.72241 | 16020 ft | 289 kts | 146° |
| 2026-05-05 20:06 | 45.78487 | 8.74038 | 15500 ft | 287 kts | 146° |
| 2026-05-05 20:07 | 45.76936 | 8.75816 | 14975 ft | 285 kts | 147° |
| 2026-05-05 20:07 | 45.75281 | 8.77295 | 14471 ft | 279 kts | 156° |
| 2026-05-05 20:07 | 45.73568 | 8.78598 | 13959 ft | 278 kts | 156° |
| 2026-05-05 20:07 | 45.71861 | 8.79906 | 13458 ft | 278 kts | 155° |
| 2026-05-05 20:08 | 45.70163 | 8.81212 | 13121 ft | 276 kts | 155° |
| 2026-05-05 20:08 | 45.68501 | 8.82494 | 12778 ft | 274 kts | 155° |
| 2026-05-05 20:08 | 45.66832 | 8.83780 | 12423 ft | 272 kts | 155° |
| 2026-05-05 20:08 | 45.65166 | 8.85064 | 12077 ft | 270 kts | 155° |
| 2026-05-05 20:09 | 45.63521 | 8.86333 | 11989 ft | 269 kts | 155° |
| 2026-05-05 20:09 | 45.61865 | 8.87603 | 11996 ft | 270 kts | 156° |
| 2026-05-05 20:09 | 45.60099 | 8.88359 | 11836 ft | 262 kts | 181° |
| 2026-05-05 20:09 | 45.58355 | 8.87885 | 11520 ft | 256 kts | 206° |
| 2026-05-05 20:10 | 45.56905 | 8.86450 | 11172 ft | 255 kts | 226° |
| 2026-05-05 20:10 | 45.55920 | 8.84381 | 10833 ft | 255 kts | 246° |
| 2026-05-05 20:10 | 45.55498 | 8.81921 | 10492 ft | 257 kts | 265° |
| 2026-05-05 20:10 | 45.55709 | 8.79386 | 10155 ft | 261 kts | 285° |
| 2026-05-05 20:11 | 45.56554 | 8.77090 | 9804 ft | 265 kts | 307° |
| 2026-05-05 20:11 | 45.57951 | 8.75378 | 9426 ft | 268 kts | 329° |
| 2026-05-05 20:11 | 45.59725 | 8.74570 | 9056 ft | 270 kts | 358° |
| 2026-05-05 20:11 | 45.61515 | 8.75249 | 8690 ft | 269 kts | 34° |
| 2026-05-05 20:12 | 45.62833 | 8.77112 | 8289 ft | 268 kts | 55° |
| 2026-05-05 20:12 | 45.63809 | 8.79366 | 7909 ft | 266 kts | 64° |
| 2026-05-05 20:12 | 45.64553 | 8.81773 | 7554 ft | 263 kts | 71° |
| 2026-05-05 20:12 | 45.65072 | 8.84234 | 7211 ft | 260 kts | 79° |
| 2026-05-05 20:13 | 45.65442 | 8.86711 | 7074 ft | 249 kts | 72° |
| 2026-05-05 20:13 | 45.66257 | 8.88830 | 6952 ft | 239 kts | 61° |
| 2026-05-05 20:13 | 45.66688 | 8.91014 | 6750 ft | 226 kts | 98° |
| 2026-05-05 20:13 | 45.66065 | 8.92962 | 6439 ft | 216 kts | 141° |
| 2026-05-05 20:14 | 45.64789 | 8.94061 | 6075 ft | 214 kts | 159° |
| 2026-05-05 20:14 | 45.63389 | 8.94760 | 6003 ft | 214 kts | 165° |
| 2026-05-05 20:14 | 45.61931 | 8.95247 | 6002 ft | 216 kts | 171° |
| 2026-05-05 20:14 | 45.60444 | 8.95516 | 6003 ft | 216 kts | 177° |
| 2026-05-05 20:15 | 45.58946 | 8.95542 | 6001 ft | 215 kts | 184° |
| 2026-05-05 20:15 | 45.57459 | 8.95289 | 6005 ft | 215 kts | 192° |
| 2026-05-05 20:15 | 45.56020 | 8.94710 | 6003 ft | 215 kts | 201° |
| 2026-05-05 20:15 | 45.54622 | 8.93954 | 6005 ft | 215 kts | 198° |
| 2026-05-05 20:16 | 45.53204 | 8.93284 | 6002 ft | 215 kts | 201° |
| 2026-05-05 20:16 | 45.51883 | 8.92300 | 6002 ft | 215 kts | 217° |
| 2026-05-05 20:16 | 45.50887 | 8.90720 | 5999 ft | 216 kts | 240° |
| 2026-05-05 20:16 | 45.50448 | 8.88680 | 6003 ft | 219 kts | 265° |
| 2026-05-05 20:17 | 45.50668 | 8.86532 | 6005 ft | 222 kts | 290° |
| 2026-05-05 20:17 | 45.51396 | 8.84579 | 6005 ft | 223 kts | 293° |
| 2026-05-05 20:17 | 45.52041 | 8.82573 | 6000 ft | 224 kts | 303° |
| 2026-05-05 20:17 | 45.53208 | 8.81118 | 6009 ft | 227 kts | 332° |
| 2026-05-05 20:18 | 45.54721 | 8.80523 | 6006 ft | 229 kts | 359° |
| 2026-05-05 20:18 | 45.56255 | 8.80929 | 6001 ft | 229 kts | 28° |
| 2026-05-05 20:18 | 45.57505 | 8.82313 | 6009 ft | 229 kts | 43° |
| 2026-05-05 20:18 | 45.58690 | 8.83838 | 6013 ft | 230 kts | 43° |
| 2026-05-05 20:19 | 45.59886 | 8.85352 | 6007 ft | 229 kts | 42° |
| 2026-05-05 20:19 | 45.61084 | 8.86858 | 6011 ft | 230 kts | 42° |
| 2026-05-05 20:19 | 45.62262 | 8.88395 | 6005 ft | 229 kts | 50° |
| 2026-05-05 20:19 | 45.62880 | 8.90406 | 6001 ft | 222 kts | 92° |
| 2026-05-05 20:20 | 45.62409 | 8.92424 | 6007 ft | 216 kts | 134° |
| 2026-05-05 20:20 | 45.61135 | 8.93449 | 6010 ft | 214 kts | 169° |
| 2026-05-05 20:20 | 45.59650 | 8.93651 | 6006 ft | 215 kts | 182° |
| 2026-05-05 20:20 | 45.58164 | 8.93456 | 6004 ft | 215 kts | 191° |
| 2026-05-05 20:21 | 45.56717 | 8.92907 | 6007 ft | 215 kts | 201° |
| 2026-05-05 20:21 | 45.55324 | 8.92143 | 6002 ft | 215 kts | 196° |
| 2026-05-05 20:21 | 45.53842 | 8.91957 | 6001 ft | 215 kts | 182° |
| 2026-05-05 20:21 | 45.52361 | 8.91713 | 6003 ft | 215 kts | 191° |
| 2026-05-05 20:22 | 45.50896 | 8.91294 | 6005 ft | 215 kts | 189° |
| 2026-05-05 20:22 | 45.49403 | 8.91188 | 6000 ft | 215 kts | 175° |
| 2026-05-05 20:22 | 45.47916 | 8.91496 | 6000 ft | 216 kts | 171° |
| 2026-05-05 20:22 | 45.46467 | 8.91863 | 5999 ft | 213 kts | 171° |
| 2026-05-05 20:23 | 45.45008 | 8.92251 | 6001 ft | 213 kts | 170° |
| 2026-05-05 20:23 | 45.43553 | 8.92643 | 5999 ft | 213 kts | 170° |
| 2026-05-05 20:23 | 45.42080 | 8.93049 | 5998 ft | 212 kts | 170° |
| 2026-05-05 20:23 | 45.40655 | 8.93453 | 5999 ft | 211 kts | 169° |
| 2026-05-05 20:24 | 45.39215 | 8.93863 | 5999 ft | 211 kts | 169° |
| 2026-05-05 20:24 | 45.37775 | 8.94277 | 5994 ft | 210 kts | 170° |
| 2026-05-05 20:24 | 45.36345 | 8.94703 | 5998 ft | 210 kts | 170° |
| 2026-05-05 20:24 | 45.34920 | 8.95132 | 5999 ft | 209 kts | 169° |
| 2026-05-05 20:25 | 45.33496 | 8.95560 | 5997 ft | 209 kts | 170° |
| 2026-05-05 20:25 | 45.32074 | 8.95989 | 5996 ft | 209 kts | 170° |
| 2026-05-05 20:25 | 45.30650 | 8.96420 | 5997 ft | 209 kts | 170° |
| 2026-05-05 20:25 | 45.29225 | 8.96853 | 5996 ft | 209 kts | 169° |
| 2026-05-05 20:26 | 45.27800 | 8.97285 | 5983 ft | 209 kts | 169° |
| 2026-05-05 20:26 | 45.26376 | 8.97714 | 5983 ft | 209 kts | 169° |
| 2026-05-05 20:26 | 45.24953 | 8.98142 | 5980 ft | 209 kts | 170° |
| 2026-05-05 20:26 | 45.23530 | 8.98572 | 5980 ft | 209 kts | 169° |
| 2026-05-05 20:27 | 45.22106 | 8.99005 | 5983 ft | 209 kts | 170° |
| 2026-05-05 20:27 | 45.20703 | 8.99434 | 5981 ft | 209 kts | 169° |
| 2026-05-05 20:27 | 45.19283 | 8.99866 | 5981 ft | 209 kts | 169° |
| 2026-05-05 20:27 | 45.17860 | 9.00296 | 5981 ft | 209 kts | 170° |
| 2026-05-05 20:28 | 45.16433 | 9.00726 | 5981 ft | 209 kts | 169° |
| 2026-05-05 20:28 | 45.15013 | 9.01155 | 5979 ft | 209 kts | 170° |
| 2026-05-05 20:28 | 45.13593 | 9.01587 | 5979 ft | 209 kts | 169° |
| 2026-05-05 20:28 | 45.12169 | 9.02019 | 5980 ft | 209 kts | 169° |
| 2026-05-05 20:29 | 45.10748 | 9.02444 | 5981 ft | 209 kts | 170° |
| 2026-05-05 20:29 | 45.09319 | 9.02468 | 5981 ft | 206 kts | 199° |
| 2026-05-05 20:29 | 45.08107 | 9.01415 | 5984 ft | 207 kts | 220° |
| 2026-05-05 20:29 | 45.07053 | 9.00021 | 5983 ft | 208 kts | 223° |
| 2026-05-05 20:30 | 45.06027 | 8.98584 | 5979 ft | 207 kts | 224° |
| 2026-05-05 20:30 | 45.05008 | 8.97141 | 5980 ft | 207 kts | 224° |
| 2026-05-05 20:30 | 45.04248 | 8.95424 | 5976 ft | 210 kts | 255° |
| 2026-05-05 20:30 | 45.04306 | 8.93350 | 5981 ft | 217 kts | 286° |
| 2026-05-05 20:31 | 45.05128 | 8.91555 | 5981 ft | 224 kts | 317° |
| 2026-05-05 20:31 | 45.06528 | 8.90591 | 5986 ft | 228 kts | 346° |
| 2026-05-05 20:31 | 45.08095 | 8.90098 | 5792 ft | 231 kts | 346° |
| 2026-05-05 20:31 | 45.09651 | 8.89611 | 5706 ft | 228 kts | 346° |
| 2026-05-05 20:32 | 45.11202 | 8.89121 | 5665 ft | 229 kts | 346° |
| 2026-05-05 20:32 | 45.12754 | 8.88628 | 5608 ft | 229 kts | 345° |
| 2026-05-05 20:32 | 45.14289 | 8.88141 | 5553 ft | 229 kts | 345° |
| 2026-05-05 20:32 | 45.15841 | 8.87649 | 5502 ft | 229 kts | 346° |
| 2026-05-05 20:33 | 45.17421 | 8.87144 | 5325 ft | 230 kts | 346° |
| 2026-05-05 20:33 | 45.18937 | 8.86656 | 5218 ft | 225 kts | 346° |
| 2026-05-05 20:33 | 45.20463 | 8.86163 | 5171 ft | 225 kts | 346° |
| 2026-05-05 20:33 | 45.21990 | 8.85669 | 5116 ft | 225 kts | 346° |
| 2026-05-05 20:34 | 45.23518 | 8.85174 | 5071 ft | 225 kts | 346° |
| 2026-05-05 20:34 | 45.25023 | 8.84688 | 4869 ft | 224 kts | 346° |
| 2026-05-05 20:34 | 45.26537 | 8.84201 | 4588 ft | 222 kts | 347° |
| 2026-05-05 20:34 | 45.28036 | 8.83717 | 4283 ft | 220 kts | 347° |
| 2026-05-05 20:35 | 45.29518 | 8.83239 | 4048 ft | 217 kts | 347° |
| 2026-05-05 20:35 | 45.30993 | 8.82763 | 4004 ft | 217 kts | 347° |
| 2026-05-05 20:35 | 45.32471 | 8.82284 | 4006 ft | 218 kts | 347° |
| 2026-05-05 20:35 | 45.33952 | 8.81805 | 4007 ft | 218 kts | 347° |
| 2026-05-05 20:36 | 45.35431 | 8.81326 | 4008 ft | 218 kts | 347° |
| 2026-05-05 20:36 | 45.36894 | 8.80851 | 4007 ft | 218 kts | 347° |
| 2026-05-05 20:36 | 45.38377 | 8.80369 | 4006 ft | 218 kts | 347° |
| 2026-05-05 20:36 | 45.39860 | 8.79888 | 4006 ft | 218 kts | 347° |
| 2026-05-05 20:37 | 45.41337 | 8.79408 | 4006 ft | 218 kts | 347° |
| 2026-05-05 20:37 | 45.42321 | 8.79088 | 4006 ft | 218 kts | 347° |
| 2026-05-05 20:37 | 45.44288 | 8.78504 | 4010 ft | 218 kts | 349° |
| 2026-05-05 20:37 | 45.45799 | 8.78089 | 3862 ft | 218 kts | 349° |
| 2026-05-05 20:38 | 45.47266 | 8.77688 | 3604 ft | 217 kts | 349° |
| 2026-05-05 20:38 | 45.48744 | 8.77282 | 3326 ft | 216 kts | 349° |
| 2026-05-05 20:38 | 45.50224 | 8.76876 | 3035 ft | 216 kts | 350° |
| 2026-05-05 20:38 | 45.51703 | 8.76469 | 2742 ft | 215 kts | 350° |
| 2026-05-05 20:39 | 45.53127 | 8.76077 | 2487 ft | 202 kts | 350° |
| 2026-05-05 20:39 | 45.54458 | 8.75710 | 2194 ft | 187 kts | 350° |
| 2026-05-05 20:39 | 45.55663 | 8.75378 | 1955 ft | 167 kts | 351° |
| 2026-05-05 20:39 | 45.56747 | 8.75079 | 1739 ft | 151 kts | 351° |
| 2026-05-05 20:40 | 45.57742 | 8.74806 | 1528 ft | 142 kts | 350° |
| 2026-05-05 20:40 | 45.58690 | 8.74545 | 1332 ft | 136 kts | 349° |
| 2026-05-05 20:40 | 45.59607 | 8.74292 | 1144 ft | 133 kts | 349° |
| 2026-05-05 20:40 | 45.60516 | 8.74042 | 959 ft | 132 kts | 349° |
| 2026-05-05 20:41 | 45.61109 | 8.73879 | 846 ft | 131 kts | 349° |
| 2026-05-05 20:41 | 45.62000 | 8.73638 | 722 ft | 126 kts | 348° |
| 2026-05-05 20:41 | 45.62740 | 8.73437 | 718 ft | 86 kts | 349° |
| 2026-05-05 20:41 | 45.63230 | 8.73296 | 715 ft | 34 kts | 348° |
| 2026-05-05 20:42 | 45.63477 | 8.73224 | 721 ft | 36 kts | 347° |
| 2026-05-05 20:42 | 45.63698 | 8.73094 | 718 ft | 34 kts | 324° |
| 2026-05-05 20:42 | 45.63791 | 8.72969 | 717 ft | 25 kts | 312° |
| 2026-05-05 20:42 | 45.63856 | 8.72834 | 718 ft | 13 kts | 305° |
| 2026-05-05 20:43 | 45.63878 | 8.72787 | 720 ft | 1 kts | 304° |
| 2026-05-05 20:43 | 45.63881 | 8.72783 | 718 ft | 0 kts | 304° |
| 2026-05-05 20:43 | 45.63884 | 8.72776 | 716 ft | 0 kts | 304° |
| 2026-05-05 20:43 | 45.63899 | 8.72745 | 717 ft | 7 kts | 304° |
| 2026-05-05 20:44 | 45.63910 | 8.72727 | 718 ft | 1 kts | 338° |
| 2026-05-05 20:44 | 45.63966 | 8.72771 | 716 ft | 16 kts | 11° |
| 2026-05-05 20:44 | 45.64054 | 8.72754 | 717 ft | 10 kts | 349° |
| 2026-05-05 20:44 | 45.64126 | 8.72736 | 720 ft | 11 kts | 350° |
| 2026-05-05 20:45 | 45.64137 | 8.72733 | 720 ft | 0 kts | 350° |
| 2026-05-05 20:45 | 45.64138 | 8.72733 | 720 ft | 1 kts | 350° |
| 2026-05-05 20:45 | 45.64170 | 8.72724 | 716 ft | 8 kts | 349° |
| 2026-05-05 20:46 | 45.64244 | 8.72705 | 717 ft | 12 kts | 349° |
| 2026-05-05 20:46 | 45.64336 | 8.72679 | 719 ft | 15 kts | 348° |
| 2026-05-05 20:46 | 45.64429 | 8.72666 | 716 ft | 14 kts | 356° |
| 2026-05-05 20:46 | 45.64515 | 8.72644 | 718 ft | 12 kts | 349° |
| 2026-05-05 20:47 | 45.64572 | 8.72629 | 717 ft | 7 kts | 349° |
| 2026-05-05 20:47 | 45.64606 | 8.72619 | 718 ft | 4 kts | 349° |
| 2026-05-05 20:47 | 45.64652 | 8.72607 | 718 ft | 10 kts | 349° |
| 2026-05-05 20:47 | 45.64741 | 8.72582 | 719 ft | 8 kts | 349° |
| 2026-05-05 20:48 | 45.64768 | 8.72574 | 716 ft | 6 kts | 349° |
| 2026-05-05 20:48 | 45.64825 | 8.72553 | 719 ft | 7 kts | 327° |
| 2026-05-05 20:48 | 45.64836 | 8.72521 | 718 ft | 1 kts | 269° |
| 2026-05-05 20:48 | 45.64835 | 8.72484 | 716 ft | 7 kts | 267° |
| 2026-05-05 20:49 | 45.64832 | 8.72451 | 715 ft | 2 kts | 261° |
| 2026-05-05 20:49 | 45.64832 | 8.72450 | 715 ft | 0 kts | 261° |